sensor_id;sensor_type;location;lat;lon;timestamp;temperature;humidity
4811;DHT22;2419;51.276;6.472;2023-09-08T00:01:41;19.60;99.90
4811;DHT22;2419;51.276;6.472;2023-09-08T00:04:09;19.60;99.90
4811;DHT22;2419;51.276;6.472;2023-09-08T00:06:38;19.50;99.90
4811;DHT22;2419;51.276;6.472;2023-09-08T00:09:07;19.40;99.90
4811;DHT22;2419;51.276;6.472;2023-09-08T00:11:35;19.30;99.90
4811;DHT22;2419;51.276;6.472;2023-09-08T00:14:03;19.30;99.90
4811;DHT22;2419;51.276;6.472;2023-09-08T00:16:31;19.40;99.90
4811;DHT22;2419;51.276;6.472;2023-09-08T00:19:00;19.50;99.90
4811;DHT22;2419;51.276;6.472;2023-09-08T00:21:28;19.60;99.90
4811;DHT22;2419;51.276;6.472;2023-09-08T00:23:56;19.70;99.90
4811;DHT22;2419;51.276;6.472;2023-09-08T00:26:24;19.70;99.90
4811;DHT22;2419;51.276;6.472;2023-09-08T00:28:52;19.70;99.90
4811;DHT22;2419;51.276;6.472;2023-09-08T00:31:20;19.70;99.90
4811;DHT22;2419;51.276;6.472;2023-09-08T00:33:48;19.70;99.90
4811;DHT22;2419;51.276;6.472;2023-09-08T00:36:18;19.70;99.90
4811;DHT22;2419;51.276;6.472;2023-09-08T00:38:46;19.70;99.90
4811;DHT22;2419;51.276;6.472;2023-09-08T00:41:15;19.60;99.90
4811;DHT22;2419;51.276;6.472;2023-09-08T00:43:43;19.50;99.90
4811;DHT22;2419;51.276;6.472;2023-09-08T00:46:11;19.30;99.90
4811;DHT22;2419;51.276;6.472;2023-09-08T00:48:40;19.20;99.90
4811;DHT22;2419;51.276;6.472;2023-09-08T00:51:09;19.20;99.90
4811;DHT22;2419;51.276;6.472;2023-09-08T00:53:39;19.10;99.90
4811;DHT22;2419;51.276;6.472;2023-09-08T00:56:09;19.10;99.90
4811;DHT22;2419;51.276;6.472;2023-09-08T00:58:37;19.10;99.90
4811;DHT22;2419;51.276;6.472;2023-09-08T01:01:06;19.00;99.90
4811;DHT22;2419;51.276;6.472;2023-09-08T01:03:34;18.90;99.90
4811;DHT22;2419;51.276;6.472;2023-09-08T01:06:02;18.90;99.90
4811;DHT22;2419;51.276;6.472;2023-09-08T01:08:31;19.00;99.90
4811;DHT22;2419;51.276;6.472;2023-09-08T01:11:02;19.10;99.90
4811;DHT22;2419;51.276;6.472;2023-09-08T01:13:30;19.10;99.90
4811;DHT22;2419;51.276;6.472;2023-09-08T01:15:58;19.10;99.90
4811;DHT22;2419;51.276;6.472;2023-09-08T01:18:26;19.10;99.90
4811;DHT22;2419;51.276;6.472;2023-09-08T01:21:12;19.00;99.90
4811;DHT22;2419;51.276;6.472;2023-09-08T01:23:59;19.00;99.90
4811;DHT22;2419;51.276;6.472;2023-09-08T01:26:37;19.00;99.90
4811;DHT22;2419;51.276;6.472;2023-09-08T01:29:09;18.90;99.90
4811;DHT22;2419;51.276;6.472;2023-09-08T01:31:38;18.80;99.90
4811;DHT22;2419;51.276;6.472;2023-09-08T01:34:07;18.80;99.90
4811;DHT22;2419;51.276;6.472;2023-09-08T01:36:37;18.80;99.90
4811;DHT22;2419;51.276;6.472;2023-09-08T01:39:05;18.70;99.90
4811;DHT22;2419;51.276;6.472;2023-09-08T01:41:35;18.60;99.90
4811;DHT22;2419;51.276;6.472;2023-09-08T01:44:03;18.50;99.90
4811;DHT22;2419;51.276;6.472;2023-09-08T01:46:35;18.50;99.90
4811;DHT22;2419;51.276;6.472;2023-09-08T01:49:03;18.40;99.90
4811;DHT22;2419;51.276;6.472;2023-09-08T01:51:31;18.40;99.90
4811;DHT22;2419;51.276;6.472;2023-09-08T01:54:00;18.40;99.90
4811;DHT22;2419;51.276;6.472;2023-09-08T01:56:28;18.40;99.90
4811;DHT22;2419;51.276;6.472;2023-09-08T01:58:57;18.40;99.90
4811;DHT22;2419;51.276;6.472;2023-09-08T02:01:26;18.40;99.90
4811;DHT22;2419;51.276;6.472;2023-09-08T02:03:55;18.30;99.90
4811;DHT22;2419;51.276;6.472;2023-09-08T02:06:22;18.30;99.90
4811;DHT22;2419;51.276;6.472;2023-09-08T02:08:52;18.40;99.90
4811;DHT22;2419;51.276;6.472;2023-09-08T02:11:20;18.40;99.90
4811;DHT22;2419;51.276;6.472;2023-09-08T02:13:48;18.40;99.90
4811;DHT22;2419;51.276;6.472;2023-09-08T02:16:18;18.40;99.90
4811;DHT22;2419;51.276;6.472;2023-09-08T02:18:50;18.40;99.90
4811;DHT22;2419;51.276;6.472;2023-09-08T02:21:18;18.30;99.90
4811;DHT22;2419;51.276;6.472;2023-09-08T02:23:46;18.30;99.90
4811;DHT22;2419;51.276;6.472;2023-09-08T02:26:14;18.20;99.90
4811;DHT22;2419;51.276;6.472;2023-09-08T02:28:43;18.10;99.90
4811;DHT22;2419;51.276;6.472;2023-09-08T02:31:12;18.10;99.90
4811;DHT22;2419;51.276;6.472;2023-09-08T02:33:41;18.10;99.90
4811;DHT22;2419;51.276;6.472;2023-09-08T02:36:10;18.10;99.90
4811;DHT22;2419;51.276;6.472;2023-09-08T02:38:39;18.00;99.90
4811;DHT22;2419;51.276;6.472;2023-09-08T02:41:08;17.90;99.90
4811;DHT22;2419;51.276;6.472;2023-09-08T02:43:36;18.00;99.90
4811;DHT22;2419;51.276;6.472;2023-09-08T02:46:04;18.00;99.90
4811;DHT22;2419;51.276;6.472;2023-09-08T02:48:32;17.80;99.90
4811;DHT22;2419;51.276;6.472;2023-09-08T02:51:02;17.80;99.90
4811;DHT22;2419;51.276;6.472;2023-09-08T02:53:30;17.70;99.90
4811;DHT22;2419;51.276;6.472;2023-09-08T02:55:58;17.50;99.90
4811;DHT22;2419;51.276;6.472;2023-09-08T02:58:27;17.50;99.90
4811;DHT22;2419;51.276;6.472;2023-09-08T03:00:55;17.60;99.90
4811;DHT22;2419;51.276;6.472;2023-09-08T03:03:23;17.70;99.90
4811;DHT22;2419;51.276;6.472;2023-09-08T03:05:53;17.80;99.90
4811;DHT22;2419;51.276;6.472;2023-09-08T03:08:25;17.80;99.90
4811;DHT22;2419;51.276;6.472;2023-09-08T03:10:55;17.80;99.90
4811;DHT22;2419;51.276;6.472;2023-09-08T03:13:24;17.80;99.90
4811;DHT22;2419;51.276;6.472;2023-09-08T03:15:52;17.80;99.90
4811;DHT22;2419;51.276;6.472;2023-09-08T03:18:20;17.80;99.90
4811;DHT22;2419;51.276;6.472;2023-09-08T03:20:49;17.90;99.90
4811;DHT22;2419;51.276;6.472;2023-09-08T03:23:17;17.80;99.90
4811;DHT22;2419;51.276;6.472;2023-09-08T03:25:48;17.80;99.90
4811;DHT22;2419;51.276;6.472;2023-09-08T03:28:16;17.80;99.90
4811;DHT22;2419;51.276;6.472;2023-09-08T03:30:45;17.80;99.90
4811;DHT22;2419;51.276;6.472;2023-09-08T03:33:13;17.80;99.90
4811;DHT22;2419;51.276;6.472;2023-09-08T03:35:41;17.80;99.90
4811;DHT22;2419;51.276;6.472;2023-09-08T03:38:09;17.80;99.90
4811;DHT22;2419;51.276;6.472;2023-09-08T03:40:38;17.80;99.90
4811;DHT22;2419;51.276;6.472;2023-09-08T03:43:08;17.80;99.90
4811;DHT22;2419;51.276;6.472;2023-09-08T03:45:36;17.80;99.90
4811;DHT22;2419;51.276;6.472;2023-09-08T03:48:05;17.80;99.90
4811;DHT22;2419;51.276;6.472;2023-09-08T03:50:34;17.80;99.90
4811;DHT22;2419;51.276;6.472;2023-09-08T03:53:02;17.80;99.90
4811;DHT22;2419;51.276;6.472;2023-09-08T03:55:31;17.80;99.90
4811;DHT22;2419;51.276;6.472;2023-09-08T03:57:59;17.80;99.90
4811;DHT22;2419;51.276;6.472;2023-09-08T04:00:29;17.90;99.90
4811;DHT22;2419;51.276;6.472;2023-09-08T04:02:57;17.80;99.90
4811;DHT22;2419;51.276;6.472;2023-09-08T04:05:25;17.80;99.90
4811;DHT22;2419;51.276;6.472;2023-09-08T04:07:53;17.70;99.90
4811;DHT22;2419;51.276;6.472;2023-09-08T04:10:21;17.70;99.90
4811;DHT22;2419;51.276;6.472;2023-09-08T04:12:50;17.70;99.90
4811;DHT22;2419;51.276;6.472;2023-09-08T04:15:19;17.80;99.90
4811;DHT22;2419;51.276;6.472;2023-09-08T04:17:48;17.70;99.90
4811;DHT22;2419;51.276;6.472;2023-09-08T04:20:17;17.70;99.90
4811;DHT22;2419;51.276;6.472;2023-09-08T04:22:45;17.70;99.90
4811;DHT22;2419;51.276;6.472;2023-09-08T04:25:14;17.60;99.90
4811;DHT22;2419;51.276;6.472;2023-09-08T04:27:42;17.60;99.90
4811;DHT22;2419;51.276;6.472;2023-09-08T04:30:12;17.60;99.90
4811;DHT22;2419;51.276;6.472;2023-09-08T04:32:41;17.70;99.90
4811;DHT22;2419;51.276;6.472;2023-09-08T04:35:11;17.70;99.90
4811;DHT22;2419;51.276;6.472;2023-09-08T04:37:40;17.70;99.90
4811;DHT22;2419;51.276;6.472;2023-09-08T04:40:08;17.70;99.90
4811;DHT22;2419;51.276;6.472;2023-09-08T04:42:37;17.70;99.90
4811;DHT22;2419;51.276;6.472;2023-09-08T04:45:07;17.70;99.90
4811;DHT22;2419;51.276;6.472;2023-09-08T04:47:35;17.60;99.90
4811;DHT22;2419;51.276;6.472;2023-09-08T04:50:05;17.50;99.90
4811;DHT22;2419;51.276;6.472;2023-09-08T04:52:34;17.60;99.90
4811;DHT22;2419;51.276;6.472;2023-09-08T04:55:04;17.50;99.90
4811;DHT22;2419;51.276;6.472;2023-09-08T04:57:33;17.50;99.90
4811;DHT22;2419;51.276;6.472;2023-09-08T05:00:03;17.50;99.90
4811;DHT22;2419;51.276;6.472;2023-09-08T05:02:31;17.50;99.90
4811;DHT22;2419;51.276;6.472;2023-09-08T05:04:59;17.50;99.90
4811;DHT22;2419;51.276;6.472;2023-09-08T05:07:28;17.50;99.90
4811;DHT22;2419;51.276;6.472;2023-09-08T05:09:57;17.40;99.90
4811;DHT22;2419;51.276;6.472;2023-09-08T05:12:29;17.50;99.90
4811;DHT22;2419;51.276;6.472;2023-09-08T05:14:57;17.40;99.90
4811;DHT22;2419;51.276;6.472;2023-09-08T05:17:34;17.40;99.90
4811;DHT22;2419;51.276;6.472;2023-09-08T05:20:03;17.50;99.90
4811;DHT22;2419;51.276;6.472;2023-09-08T05:22:32;17.50;99.90
4811;DHT22;2419;51.276;6.472;2023-09-08T05:25:02;17.50;99.90
4811;DHT22;2419;51.276;6.472;2023-09-08T05:27:30;17.50;99.90
4811;DHT22;2419;51.276;6.472;2023-09-08T05:29:58;17.70;99.90
4811;DHT22;2419;51.276;6.472;2023-09-08T05:32:27;18.40;99.90
4811;DHT22;2419;51.276;6.472;2023-09-08T05:34:55;19.20;99.90
4811;DHT22;2419;51.276;6.472;2023-09-08T05:37:23;19.80;99.90
4811;DHT22;2419;51.276;6.472;2023-09-08T05:39:51;20.20;99.90
4811;DHT22;2419;51.276;6.472;2023-09-08T05:42:21;20.20;99.90
4811;DHT22;2419;51.276;6.472;2023-09-08T05:44:49;20.10;99.90
4811;DHT22;2419;51.276;6.472;2023-09-08T05:47:17;19.90;99.90
4811;DHT22;2419;51.276;6.472;2023-09-08T05:49:45;19.60;99.90
4811;DHT22;2419;51.276;6.472;2023-09-08T05:52:13;19.10;99.90
4811;DHT22;2419;51.276;6.472;2023-09-08T05:54:43;18.80;99.90
4811;DHT22;2419;51.276;6.472;2023-09-08T05:57:11;18.60;99.90
4811;DHT22;2419;51.276;6.472;2023-09-08T05:59:41;18.50;99.90
4811;DHT22;2419;51.276;6.472;2023-09-08T06:02:09;18.40;99.90
4811;DHT22;2419;51.276;6.472;2023-09-08T06:04:37;18.50;99.90
4811;DHT22;2419;51.276;6.472;2023-09-08T06:07:06;18.60;99.90
4811;DHT22;2419;51.276;6.472;2023-09-08T06:09:34;18.70;99.90
4811;DHT22;2419;51.276;6.472;2023-09-08T06:12:04;18.70;99.90
4811;DHT22;2419;51.276;6.472;2023-09-08T06:14:32;18.70;99.90
4811;DHT22;2419;51.276;6.472;2023-09-08T06:17:01;18.70;99.90
4811;DHT22;2419;51.276;6.472;2023-09-08T06:19:30;18.70;99.90
4811;DHT22;2419;51.276;6.472;2023-09-08T06:21:58;18.80;99.90
4811;DHT22;2419;51.276;6.472;2023-09-08T06:24:26;18.80;99.90
4811;DHT22;2419;51.276;6.472;2023-09-08T06:26:55;18.90;99.90
4811;DHT22;2419;51.276;6.472;2023-09-08T06:29:23;18.90;99.90
4811;DHT22;2419;51.276;6.472;2023-09-08T06:31:52;19.00;99.90
4811;DHT22;2419;51.276;6.472;2023-09-08T06:34:21;19.10;99.90
4811;DHT22;2419;51.276;6.472;2023-09-08T06:36:50;19.10;99.90
4811;DHT22;2419;51.276;6.472;2023-09-08T06:39:18;19.20;99.90
4811;DHT22;2419;51.276;6.472;2023-09-08T06:41:46;19.30;99.90
4811;DHT22;2419;51.276;6.472;2023-09-08T06:44:16;19.40;99.90
4811;DHT22;2419;51.276;6.472;2023-09-08T06:46:45;19.40;99.90
4811;DHT22;2419;51.276;6.472;2023-09-08T06:49:14;19.50;99.90
4811;DHT22;2419;51.276;6.472;2023-09-08T06:51:43;19.50;99.90
4811;DHT22;2419;51.276;6.472;2023-09-08T06:54:11;19.60;99.90
4811;DHT22;2419;51.276;6.472;2023-09-08T06:56:42;19.70;99.90
4811;DHT22;2419;51.276;6.472;2023-09-08T06:59:11;19.80;99.90
4811;DHT22;2419;51.276;6.472;2023-09-08T07:01:39;19.80;99.90
4811;DHT22;2419;51.276;6.472;2023-09-08T07:04:08;19.90;99.90
4811;DHT22;2419;51.276;6.472;2023-09-08T07:06:38;19.90;99.90
4811;DHT22;2419;51.276;6.472;2023-09-08T07:09:10;20.00;99.90
4811;DHT22;2419;51.276;6.472;2023-09-08T07:11:38;20.10;99.90
4811;DHT22;2419;51.276;6.472;2023-09-08T07:14:07;20.10;99.90
4811;DHT22;2419;51.276;6.472;2023-09-08T07:16:35;20.20;99.90
4811;DHT22;2419;51.276;6.472;2023-09-08T07:19:05;20.30;99.90
4811;DHT22;2419;51.276;6.472;2023-09-08T07:21:33;20.40;99.90
4811;DHT22;2419;51.276;6.472;2023-09-08T07:24:01;20.40;99.90
4811;DHT22;2419;51.276;6.472;2023-09-08T07:26:31;20.50;99.90
4811;DHT22;2419;51.276;6.472;2023-09-08T07:28:59;20.60;99.90
4811;DHT22;2419;51.276;6.472;2023-09-08T07:31:27;20.70;99.90
4811;DHT22;2419;51.276;6.472;2023-09-08T07:33:56;20.70;99.90
4811;DHT22;2419;51.276;6.472;2023-09-08T07:36:25;20.70;99.90
4811;DHT22;2419;51.276;6.472;2023-09-08T07:38:53;20.70;99.90
4811;DHT22;2419;51.276;6.472;2023-09-08T07:41:21;20.90;99.90
4811;DHT22;2419;51.276;6.472;2023-09-08T07:43:51;20.90;99.90
4811;DHT22;2419;51.276;6.472;2023-09-08T07:46:23;20.90;99.90
4811;DHT22;2419;51.276;6.472;2023-09-08T07:48:51;21.10;99.90
4811;DHT22;2419;51.276;6.472;2023-09-08T07:51:19;21.20;99.90
4811;DHT22;2419;51.276;6.472;2023-09-08T07:53:47;21.40;99.90
4811;DHT22;2419;51.276;6.472;2023-09-08T07:56:15;21.40;99.90
4811;DHT22;2419;51.276;6.472;2023-09-08T07:58:43;21.50;99.90
4811;DHT22;2419;51.276;6.472;2023-09-08T08:01:14;21.60;99.90
4811;DHT22;2419;51.276;6.472;2023-09-08T08:03:42;21.60;99.90
4811;DHT22;2419;51.276;6.472;2023-09-08T08:06:10;21.70;99.90
4811;DHT22;2419;51.276;6.472;2023-09-08T08:08:38;21.70;99.90
4811;DHT22;2419;51.276;6.472;2023-09-08T08:11:11;21.90;99.90
4811;DHT22;2419;51.276;6.472;2023-09-08T08:13:39;22.00;99.90
4811;DHT22;2419;51.276;6.472;2023-09-08T08:16:07;22.00;99.90
4811;DHT22;2419;51.276;6.472;2023-09-08T08:18:37;22.00;99.90
4811;DHT22;2419;51.276;6.472;2023-09-08T08:21:06;22.10;99.90
4811;DHT22;2419;51.276;6.472;2023-09-08T08:23:34;22.20;99.90
4811;DHT22;2419;51.276;6.472;2023-09-08T08:26:03;22.20;99.90
4811;DHT22;2419;51.276;6.472;2023-09-08T08:28:31;22.40;99.90
4811;DHT22;2419;51.276;6.472;2023-09-08T08:30:59;22.50;99.90
4811;DHT22;2419;51.276;6.472;2023-09-08T08:33:27;22.70;99.90
4811;DHT22;2419;51.276;6.472;2023-09-08T08:35:58;22.80;99.90
4811;DHT22;2419;51.276;6.472;2023-09-08T08:38:27;22.80;99.90
4811;DHT22;2419;51.276;6.472;2023-09-08T08:41:01;22.90;99.90
4811;DHT22;2419;51.276;6.472;2023-09-08T08:43:31;22.90;99.90
4811;DHT22;2419;51.276;6.472;2023-09-08T08:46:00;22.90;99.90
4811;DHT22;2419;51.276;6.472;2023-09-08T08:48:29;23.00;99.90
4811;DHT22;2419;51.276;6.472;2023-09-08T08:51:00;23.20;99.90
4811;DHT22;2419;51.276;6.472;2023-09-08T08:53:29;23.30;99.90
4811;DHT22;2419;51.276;6.472;2023-09-08T08:55:59;23.30;99.90
4811;DHT22;2419;51.276;6.472;2023-09-08T08:58:28;23.50;99.90
4811;DHT22;2419;51.276;6.472;2023-09-08T09:00:57;23.60;99.90
4811;DHT22;2419;51.276;6.472;2023-09-08T09:03:27;23.80;99.90
4811;DHT22;2419;51.276;6.472;2023-09-08T09:05:55;23.80;99.90
4811;DHT22;2419;51.276;6.472;2023-09-08T09:08:26;24.00;99.90
4811;DHT22;2419;51.276;6.472;2023-09-08T09:10:54;24.10;99.90
4811;DHT22;2419;51.276;6.472;2023-09-08T09:13:22;24.20;99.90
4811;DHT22;2419;51.276;6.472;2023-09-08T09:15:50;24.50;99.90
4811;DHT22;2419;51.276;6.472;2023-09-08T09:18:18;24.60;99.90
4811;DHT22;2419;51.276;6.472;2023-09-08T09:20:53;24.70;99.90
4811;DHT22;2419;51.276;6.472;2023-09-08T09:23:30;24.80;99.90
4811;DHT22;2419;51.276;6.472;2023-09-08T09:25:59;25.00;99.90
4811;DHT22;2419;51.276;6.472;2023-09-08T09:28:28;25.20;99.90
4811;DHT22;2419;51.276;6.472;2023-09-08T09:30:57;25.00;99.90
4811;DHT22;2419;51.276;6.472;2023-09-08T09:33:28;25.20;99.90
4811;DHT22;2419;51.276;6.472;2023-09-08T09:35:57;25.40;99.90
4811;DHT22;2419;51.276;6.472;2023-09-08T09:38:27;25.50;99.90
4811;DHT22;2419;51.276;6.472;2023-09-08T09:40:56;25.70;99.90
4811;DHT22;2419;51.276;6.472;2023-09-08T09:43:28;25.90;99.90
4811;DHT22;2419;51.276;6.472;2023-09-08T09:45:56;25.90;99.90
4811;DHT22;2419;51.276;6.472;2023-09-08T09:48:24;25.90;99.90
4811;DHT22;2419;51.276;6.472;2023-09-08T09:50:53;26.10;99.90
4811;DHT22;2419;51.276;6.472;2023-09-08T09:53:21;26.20;99.90
4811;DHT22;2419;51.276;6.472;2023-09-08T09:55:51;26.40;99.90
4811;DHT22;2419;51.276;6.472;2023-09-08T09:58:20;26.60;99.90
4811;DHT22;2419;51.276;6.472;2023-09-08T10:00:50;26.60;99.90
4811;DHT22;2419;51.276;6.472;2023-09-08T10:03:19;26.90;99.90
4811;DHT22;2419;51.276;6.472;2023-09-08T10:05:47;26.90;99.90
4811;DHT22;2419;51.276;6.472;2023-09-08T10:08:16;27.10;99.90
4811;DHT22;2419;51.276;6.472;2023-09-08T10:10:45;27.20;99.90
4811;DHT22;2419;51.276;6.472;2023-09-08T10:13:21;27.50;99.90
4811;DHT22;2419;51.276;6.472;2023-09-08T10:15:50;27.90;99.80
4811;DHT22;2419;51.276;6.472;2023-09-08T10:18:20;28.10;98.50
4811;DHT22;2419;51.276;6.472;2023-09-08T10:20:51;28.60;97.90
4811;DHT22;2419;51.276;6.472;2023-09-08T10:23:27;29.50;97.30
4811;DHT22;2419;51.276;6.472;2023-09-08T10:26:03;30.80;94.10
4811;DHT22;2419;51.276;6.472;2023-09-08T10:28:36;31.60;90.40
4811;DHT22;2419;51.276;6.472;2023-09-08T10:31:05;32.20;80.90
4811;DHT22;2419;51.276;6.472;2023-09-08T10:33:34;32.50;79.40
4811;DHT22;2419;51.276;6.472;2023-09-08T10:36:04;33.70;73.30
4811;DHT22;2419;51.276;6.472;2023-09-08T10:38:34;34.80;68.10
4811;DHT22;2419;51.276;6.472;2023-09-08T10:41:28;34.90;64.80
4811;DHT22;2419;51.276;6.472;2023-09-08T10:44:03;35.40;62.60
4811;DHT22;2419;51.276;6.472;2023-09-08T10:46:37;35.40;58.00
4811;DHT22;2419;51.276;6.472;2023-09-08T10:49:06;35.50;58.30
4811;DHT22;2419;51.276;6.472;2023-09-08T10:51:39;35.50;57.20
4811;DHT22;2419;51.276;6.472;2023-09-08T10:54:07;34.90;56.30
4811;DHT22;2419;51.276;6.472;2023-09-08T10:56:48;35.60;58.00
4811;DHT22;2419;51.276;6.472;2023-09-08T10:59:28;36.30;56.20
4811;DHT22;2419;51.276;6.472;2023-09-08T11:01:56;36.50;55.60
4811;DHT22;2419;51.276;6.472;2023-09-08T11:04:25;36.40;56.30
4811;DHT22;2419;51.276;6.472;2023-09-08T11:06:56;36.10;54.90
4811;DHT22;2419;51.276;6.472;2023-09-08T11:09:24;35.70;54.20
4811;DHT22;2419;51.276;6.472;2023-09-08T11:11:52;35.80;53.70
4811;DHT22;2419;51.276;6.472;2023-09-08T11:14:20;36.00;54.50
4811;DHT22;2419;51.276;6.472;2023-09-08T11:16:50;35.90;54.30
4811;DHT22;2419;51.276;6.472;2023-09-08T11:19:18;36.60;53.10
4811;DHT22;2419;51.276;6.472;2023-09-08T11:21:47;37.10;53.00
4811;DHT22;2419;51.276;6.472;2023-09-08T11:24:16;37.20;50.60
4811;DHT22;2419;51.276;6.472;2023-09-08T11:26:45;36.80;51.40
4811;DHT22;2419;51.276;6.472;2023-09-08T11:29:17;37.00;51.70
4811;DHT22;2419;51.276;6.472;2023-09-08T11:31:53;37.00;50.30
4811;DHT22;2419;51.276;6.472;2023-09-08T11:34:21;36.40;51.20
4811;DHT22;2419;51.276;6.472;2023-09-08T11:36:52;35.80;51.90
4811;DHT22;2419;51.276;6.472;2023-09-08T11:39:23;35.60;53.70
4811;DHT22;2419;51.276;6.472;2023-09-08T11:41:52;36.00;53.30
4811;DHT22;2419;51.276;6.472;2023-09-08T11:44:20;34.70;53.70
4811;DHT22;2419;51.276;6.472;2023-09-08T11:46:49;35.20;54.50
4811;DHT22;2419;51.276;6.472;2023-09-08T11:49:20;35.80;51.80
4811;DHT22;2419;51.276;6.472;2023-09-08T11:51:49;36.20;51.90
4811;DHT22;2419;51.276;6.472;2023-09-08T11:54:18;35.00;52.10
4811;DHT22;2419;51.276;6.472;2023-09-08T11:56:46;34.80;54.20
4811;DHT22;2419;51.276;6.472;2023-09-08T11:59:14;35.20;54.30
4811;DHT22;2419;51.276;6.472;2023-09-08T12:01:43;35.40;52.10
4811;DHT22;2419;51.276;6.472;2023-09-08T12:04:17;35.30;52.00
4811;DHT22;2419;51.276;6.472;2023-09-08T12:06:48;35.00;52.60
4811;DHT22;2419;51.276;6.472;2023-09-08T12:09:16;34.30;54.30
4811;DHT22;2419;51.276;6.472;2023-09-08T12:11:44;34.80;53.70
4811;DHT22;2419;51.276;6.472;2023-09-08T12:14:15;34.90;53.30
4811;DHT22;2419;51.276;6.472;2023-09-08T12:16:43;34.60;53.50
4811;DHT22;2419;51.276;6.472;2023-09-08T12:19:29;35.00;52.90
4811;DHT22;2419;51.276;6.472;2023-09-08T12:22:00;35.70;52.90
4811;DHT22;2419;51.276;6.472;2023-09-08T12:24:49;35.80;51.20
4811;DHT22;2419;51.276;6.472;2023-09-08T12:27:18;35.50;51.10
4811;DHT22;2419;51.276;6.472;2023-09-08T12:29:56;35.50;50.80
4811;DHT22;2419;51.276;6.472;2023-09-08T12:32:25;35.50;51.70
4811;DHT22;2419;51.276;6.472;2023-09-08T12:34:53;35.60;51.50
4811;DHT22;2419;51.276;6.472;2023-09-08T12:37:24;34.90;52.10
4811;DHT22;2419;51.276;6.472;2023-09-08T12:39:54;35.10;51.20
4811;DHT22;2419;51.276;6.472;2023-09-08T12:42:22;35.30;50.90
4811;DHT22;2419;51.276;6.472;2023-09-08T12:44:53;35.30;51.60
4811;DHT22;2419;51.276;6.472;2023-09-08T12:47:21;35.50;51.70
4811;DHT22;2419;51.276;6.472;2023-09-08T12:49:49;35.30;50.30
4811;DHT22;2419;51.276;6.472;2023-09-08T12:52:18;34.70;50.80
4811;DHT22;2419;51.276;6.472;2023-09-08T12:54:48;35.00;52.40
4811;DHT22;2419;51.276;6.472;2023-09-08T12:57:16;34.90;51.40
4811;DHT22;2419;51.276;6.472;2023-09-08T12:59:44;34.70;52.00
4811;DHT22;2419;51.276;6.472;2023-09-08T13:02:13;35.00;52.90
4811;DHT22;2419;51.276;6.472;2023-09-08T13:04:42;34.90;51.90
4811;DHT22;2419;51.276;6.472;2023-09-08T13:07:15;34.30;53.30
4811;DHT22;2419;51.276;6.472;2023-09-08T13:09:43;34.10;52.30
4811;DHT22;2419;51.276;6.472;2023-09-08T13:12:12;34.00;53.00
4811;DHT22;2419;51.276;6.472;2023-09-08T13:14:41;34.00;52.40
4811;DHT22;2419;51.276;6.472;2023-09-08T13:17:10;34.00;54.90
4811;DHT22;2419;51.276;6.472;2023-09-08T13:19:38;34.00;53.60
4811;DHT22;2419;51.276;6.472;2023-09-08T13:22:07;33.20;54.10
4811;DHT22;2419;51.276;6.472;2023-09-08T13:24:36;32.40;55.20
4811;DHT22;2419;51.276;6.472;2023-09-08T13:27:05;32.20;56.00
4811;DHT22;2419;51.276;6.472;2023-09-08T13:29:35;31.90;55.90
4811;DHT22;2419;51.276;6.472;2023-09-08T13:32:04;31.70;56.90
4811;DHT22;2419;51.276;6.472;2023-09-08T13:34:33;31.90;58.20
4811;DHT22;2419;51.276;6.472;2023-09-08T13:37:01;32.10;56.80
4811;DHT22;2419;51.276;6.472;2023-09-08T13:39:30;31.70;57.30
4811;DHT22;2419;51.276;6.472;2023-09-08T13:42:00;31.60;56.10
4811;DHT22;2419;51.276;6.472;2023-09-08T13:44:29;31.40;56.00
4811;DHT22;2419;51.276;6.472;2023-09-08T13:46:59;31.30;57.40
4811;DHT22;2419;51.276;6.472;2023-09-08T13:49:27;31.40;59.10
4811;DHT22;2419;51.276;6.472;2023-09-08T13:51:56;31.10;58.30
4811;DHT22;2419;51.276;6.472;2023-09-08T13:54:27;31.00;59.10
4811;DHT22;2419;51.276;6.472;2023-09-08T13:57:00;31.20;60.20
4811;DHT22;2419;51.276;6.472;2023-09-08T13:59:33;31.40;58.80
4811;DHT22;2419;51.276;6.472;2023-09-08T14:02:04;31.40;58.50
4811;DHT22;2419;51.276;6.472;2023-09-08T14:04:35;31.40;58.60
4811;DHT22;2419;51.276;6.472;2023-09-08T14:07:08;31.30;59.30
4811;DHT22;2419;51.276;6.472;2023-09-08T14:09:39;31.50;60.10
4811;DHT22;2419;51.276;6.472;2023-09-08T14:12:19;31.50;59.30
4811;DHT22;2419;51.276;6.472;2023-09-08T14:14:52;31.60;58.80
4811;DHT22;2419;51.276;6.472;2023-09-08T14:17:22;31.50;59.10
4811;DHT22;2419;51.276;6.472;2023-09-08T14:19:50;31.30;59.50
4811;DHT22;2419;51.276;6.472;2023-09-08T14:22:18;31.10;60.00
4811;DHT22;2419;51.276;6.472;2023-09-08T14:24:46;31.10;60.70
4811;DHT22;2419;51.276;6.472;2023-09-08T14:27:14;30.90;59.60
4811;DHT22;2419;51.276;6.472;2023-09-08T14:29:42;31.10;60.00
4811;DHT22;2419;51.276;6.472;2023-09-08T14:32:10;31.10;60.10
4811;DHT22;2419;51.276;6.472;2023-09-08T14:34:39;31.20;60.80
4811;DHT22;2419;51.276;6.472;2023-09-08T14:37:07;31.00;61.00
4811;DHT22;2419;51.276;6.472;2023-09-08T14:39:37;31.00;60.70
4811;DHT22;2419;51.276;6.472;2023-09-08T14:42:05;31.10;63.10
4811;DHT22;2419;51.276;6.472;2023-09-08T14:44:33;31.30;60.90
4811;DHT22;2419;51.276;6.472;2023-09-08T14:47:01;31.30;61.40
4811;DHT22;2419;51.276;6.472;2023-09-08T14:49:29;31.20;61.00
4811;DHT22;2419;51.276;6.472;2023-09-08T14:51:59;31.10;63.00
4811;DHT22;2419;51.276;6.472;2023-09-08T14:54:27;31.10;62.00
4811;DHT22;2419;51.276;6.472;2023-09-08T14:56:55;31.20;62.80
4811;DHT22;2419;51.276;6.472;2023-09-08T14:59:23;31.00;62.20
4811;DHT22;2419;51.276;6.472;2023-09-08T15:01:51;30.90;63.00
4811;DHT22;2419;51.276;6.472;2023-09-08T15:04:21;30.90;62.40
4811;DHT22;2419;51.276;6.472;2023-09-08T15:06:52;30.80;62.90
4811;DHT22;2419;51.276;6.472;2023-09-08T15:09:29;30.80;65.00
4811;DHT22;2419;51.276;6.472;2023-09-08T15:11:58;30.90;64.70
4811;DHT22;2419;51.276;6.472;2023-09-08T15:14:26;30.90;63.10
4811;DHT22;2419;51.276;6.472;2023-09-08T15:16:54;30.80;62.90
4811;DHT22;2419;51.276;6.472;2023-09-08T15:19:22;30.80;64.70
4811;DHT22;2419;51.276;6.472;2023-09-08T15:21:50;30.80;66.10
4811;DHT22;2419;51.276;6.472;2023-09-08T15:24:18;30.90;66.10
4811;DHT22;2419;51.276;6.472;2023-09-08T15:26:47;30.80;66.50
4811;DHT22;2419;51.276;6.472;2023-09-08T15:29:16;30.80;66.00
4811;DHT22;2419;51.276;6.472;2023-09-08T15:31:47;30.70;66.60
4811;DHT22;2419;51.276;6.472;2023-09-08T15:34:15;30.70;66.30
4811;DHT22;2419;51.276;6.472;2023-09-08T15:36:43;30.40;66.80
4811;DHT22;2419;51.276;6.472;2023-09-08T15:39:13;30.40;66.60
4811;DHT22;2419;51.276;6.472;2023-09-08T15:41:41;30.50;68.10
4811;DHT22;2419;51.276;6.472;2023-09-08T15:44:11;30.50;68.60
4811;DHT22;2419;51.276;6.472;2023-09-08T15:46:40;30.40;68.20
4811;DHT22;2419;51.276;6.472;2023-09-08T15:49:09;30.30;69.20
4811;DHT22;2419;51.276;6.472;2023-09-08T15:51:37;30.30;70.40
4811;DHT22;2419;51.276;6.472;2023-09-08T15:54:06;30.30;69.70
4811;DHT22;2419;51.276;6.472;2023-09-08T15:56:34;30.30;70.00
4811;DHT22;2419;51.276;6.472;2023-09-08T15:59:02;30.30;70.10
4811;DHT22;2419;51.276;6.472;2023-09-08T16:01:32;30.30;69.90
4811;DHT22;2419;51.276;6.472;2023-09-08T16:04:00;30.20;69.20
4811;DHT22;2419;51.276;6.472;2023-09-08T16:06:28;30.00;71.30
4811;DHT22;2419;51.276;6.472;2023-09-08T16:08:56;29.90;71.00
4811;DHT22;2419;51.276;6.472;2023-09-08T16:11:24;29.90;73.00
4811;DHT22;2419;51.276;6.472;2023-09-08T16:13:52;29.80;73.60
4811;DHT22;2419;51.276;6.472;2023-09-08T16:16:20;29.80;73.10